createdAt,value
2022-10-15T00:01:09.604Z,3.47
2022-10-15T00:04:02.969Z,2.65
2022-10-15T00:06:55.954Z,2.33
2022-10-15T00:09:49.106Z,2.28
2022-10-15T00:12:42.703Z,2.53
2022-10-15T00:15:37.197Z,2.83
2022-10-15T00:18:31.212Z,2.83
2022-10-15T00:21:24.035Z,1.92
2022-10-15T00:24:17.033Z,2.92
2022-10-15T00:27:09.683Z,3.28
2022-10-15T00:30:04.018Z,2.10
2022-10-15T00:32:56.865Z,2.42
2022-10-15T00:35:59.676Z,2.40
2022-10-15T00:38:53.580Z,2.33
2022-10-15T00:41:48.255Z,2.78
2022-10-15T00:44:53.711Z,1.95
2022-10-15T00:47:50.055Z,2.58
2022-10-15T00:50:43.461Z,2.25
2022-10-15T00:53:38.521Z,2.00
2022-10-15T00:56:33.922Z,2.55
2022-10-15T00:59:29.934Z,2.13
2022-10-15T01:02:23.539Z,2.42
2022-10-15T01:05:18.379Z,2.35
2022-10-15T01:08:11.445Z,2.65
2022-10-15T01:11:18.655Z,3.05
2022-10-15T01:14:28.106Z,2.35
2022-10-15T01:17:24.943Z,2.55
2022-10-15T01:20:52.742Z,2.28
2022-10-15T01:24:12.002Z,2.00
2022-10-15T01:27:24.064Z,1.92
2022-10-15T01:30:26.479Z,3.22
2022-10-15T01:33:28.007Z,2.72
2022-10-15T01:36:30.281Z,2.25
2022-10-15T01:39:28.815Z,2.05
2022-10-15T01:42:26.900Z,2.22
2022-10-15T01:45:25.340Z,2.15
2022-10-15T01:48:20.588Z,1.70
2022-10-15T01:51:17.894Z,2.40
2022-10-15T01:54:14.879Z,2.03
2022-10-15T01:57:08.638Z,2.60
2022-10-15T02:00:04.252Z,2.45
2022-10-15T02:03:01.428Z,2.20
2022-10-15T02:06:03.349Z,2.20
2022-10-15T02:09:08.054Z,2.00
2022-10-15T02:12:10.404Z,2.45
2022-10-15T02:15:11.343Z,2.30
2022-10-15T02:18:10.970Z,1.77
2022-10-15T02:21:11.029Z,2.17
2022-10-15T02:24:09.772Z,2.55
2022-10-15T02:27:05.101Z,2.33
2022-10-15T02:29:58.993Z,2.13
2022-10-15T02:32:56.154Z,1.95
2022-10-15T02:35:51.413Z,1.45
2022-10-15T02:38:46.983Z,2.70
2022-10-15T02:41:40.709Z,1.67
2022-10-15T02:44:34.991Z,2.25
2022-10-15T02:47:28.291Z,1.67
2022-10-15T02:50:21.259Z,1.45
2022-10-15T02:53:14.309Z,2.50
2022-10-15T02:56:08.606Z,2.53
2022-10-15T02:59:01.912Z,2.60
2022-10-15T03:01:55.183Z,1.60
2022-10-15T03:04:48.079Z,1.88
2022-10-15T03:07:41.335Z,1.33
2022-10-15T03:10:34.111Z,1.77
2022-10-15T03:13:28.624Z,2.13
2022-10-15T03:16:22.262Z,1.58
2022-10-15T03:19:15.325Z,1.77
2022-10-15T03:22:08.324Z,1.67
2022-10-15T03:25:00.953Z,1.33
2022-10-15T03:27:54.152Z,1.70
2022-10-15T03:30:48.075Z,1.42
2022-10-15T03:33:40.997Z,2.05
2022-10-15T03:36:34.250Z,1.50
2022-10-15T03:39:27.140Z,1.65
2022-10-15T03:42:20.502Z,2.03
2022-10-15T03:45:14.099Z,1.50
2022-10-15T03:48:08.838Z,1.90
2022-10-15T03:51:02.083Z,1.88
2022-10-15T03:53:55.077Z,1.63
2022-10-15T03:56:48.109Z,1.83
2022-10-15T03:59:40.826Z,1.67
2022-10-15T04:02:34.643Z,1.70
2022-10-15T04:05:29.725Z,1.95
2022-10-15T04:08:23.001Z,1.92
2022-10-15T04:11:16.234Z,1.73
2022-10-15T04:14:09.240Z,2.22
2022-10-15T04:17:02.224Z,1.45
2022-10-15T04:19:55.199Z,1.88
2022-10-15T04:22:49.310Z,1.73
2022-10-15T04:25:42.607Z,1.65
2022-10-15T04:28:36.125Z,1.63
2022-10-15T04:31:29.146Z,2.00
2022-10-15T04:34:22.191Z,2.13
2022-10-15T04:37:15.257Z,1.42
2022-10-15T04:40:12.239Z,1.83
2022-10-15T04:43:04.908Z,1.70
2022-10-15T04:45:59.696Z,2.33
2022-10-15T04:48:57.512Z,1.67
2022-10-15T04:51:50.471Z,1.25
2022-10-15T04:54:42.804Z,1.92
2022-10-15T04:57:37.295Z,1.45
2022-10-15T05:00:30.225Z,1.40
2022-10-15T05:03:23.439Z,1.20
2022-10-15T05:06:18.687Z,1.83
2022-10-15T05:09:12.665Z,1.65
2022-10-15T05:12:06.505Z,1.13
2022-10-15T05:15:00.236Z,1.60
2022-10-15T05:17:52.928Z,2.05
2022-10-15T05:20:46.489Z,1.20
2022-10-15T05:23:39.498Z,3.08
2022-10-15T05:26:33.358Z,1.83
2022-10-15T05:29:26.242Z,1.55
2022-10-15T05:35:16.959Z,1.38
2022-10-15T05:38:10.378Z,1.90
2022-10-15T05:41:03.244Z,1.02
2022-10-15T05:43:58.363Z,1.40
2022-10-15T05:46:51.217Z,1.45
2022-10-15T05:49:45.607Z,1.40
2022-10-15T05:52:38.226Z,1.23
2022-10-15T05:55:31.991Z,1.30
2022-10-15T05:58:25.219Z,1.70
2022-10-15T06:01:18.022Z,1.20
2022-10-15T06:04:11.939Z,1.15
2022-10-15T06:07:06.704Z,1.05
2022-10-15T06:10:00.334Z,1.83
2022-10-15T06:12:53.378Z,0.95
2022-10-15T06:15:47.180Z,1.40
2022-10-15T06:18:41.210Z,1.60
2022-10-15T06:21:34.399Z,1.10
2022-10-15T06:24:28.246Z,1.15
2022-10-15T06:27:20.927Z,1.88
2022-10-15T06:30:14.311Z,1.10
2022-10-15T06:33:07.304Z,1.33
2022-10-15T06:36:03.304Z,1.73
2022-10-15T06:38:56.507Z,1.45
2022-10-15T06:41:50.520Z,1.50
2022-10-15T06:44:43.412Z,0.88
2022-10-15T06:47:36.240Z,1.55
2022-10-15T06:50:29.322Z,1.45
2022-10-15T06:53:23.009Z,1.08
2022-10-15T06:56:15.880Z,1.30
2022-10-15T06:59:10.738Z,1.17
2022-10-15T07:02:04.576Z,1.77
2022-10-15T07:04:58.092Z,1.40
2022-10-15T07:07:54.566Z,2.13
2022-10-15T07:10:47.277Z,0.95
2022-10-15T07:13:40.439Z,1.60
2022-10-15T07:16:34.621Z,1.83
2022-10-15T07:19:28.324Z,1.10
2022-10-15T07:22:21.415Z,1.17
2022-10-15T07:25:14.052Z,1.10
2022-10-15T07:28:07.691Z,1.08
2022-10-15T07:31:02.780Z,1.30
2022-10-15T07:33:57.900Z,1.58
2022-10-15T07:36:51.322Z,1.67
2022-10-15T07:39:44.222Z,1.10
2022-10-15T07:42:37.471Z,1.13
2022-10-15T07:45:30.268Z,1.48
2022-10-15T07:48:23.745Z,0.82
2022-10-15T07:51:18.734Z,1.00
2022-10-15T07:54:12.476Z,1.55
2022-10-15T07:57:06.973Z,1.63
2022-10-15T08:00:00.272Z,1.13
2022-10-15T08:02:53.689Z,0.95
2022-10-15T08:05:46.399Z,1.35
2022-10-15T08:08:40.946Z,0.63
2022-10-15T08:11:34.370Z,1.42
2022-10-15T08:14:27.753Z,0.98
2022-10-15T08:17:21.258Z,1.40
2022-10-15T08:20:14.672Z,0.82
2022-10-15T08:23:14.319Z,1.00
2022-10-15T08:26:08.766Z,0.80
2022-10-15T08:29:02.933Z,0.85
2022-10-15T08:31:56.486Z,1.60
2022-10-15T08:34:49.438Z,1.00
2022-10-15T08:37:42.476Z,1.52
2022-10-15T08:40:35.534Z,0.85
2022-10-15T08:43:36.202Z,1.38
2022-10-15T08:46:34.819Z,1.45
2022-10-15T08:49:44.708Z,1.10
2022-10-15T08:52:43.462Z,1.40
2022-10-15T08:55:40.696Z,1.30
2022-10-15T08:58:47.031Z,1.00
2022-10-15T09:01:48.328Z,0.77
2022-10-15T09:04:50.460Z,1.52
2022-10-15T09:07:50.838Z,1.38
2022-10-15T09:10:51.132Z,0.70
2022-10-15T09:13:47.557Z,1.10
2022-10-15T09:16:42.927Z,0.68
2022-10-15T09:19:39.127Z,1.20
2022-10-15T09:22:34.539Z,0.95
2022-10-15T09:25:33.329Z,1.20
2022-10-15T09:28:34.093Z,1.15
2022-10-15T09:31:35.060Z,0.60
2022-10-15T09:34:35.170Z,1.50
2022-10-15T09:37:32.524Z,0.98
2022-10-15T09:40:40.591Z,0.90
2022-10-15T09:43:37.181Z,1.08
2022-10-15T09:46:31.601Z,2.70
2022-10-15T09:49:26.689Z,1.33
2022-10-15T09:52:28.241Z,0.85
2022-10-15T09:55:36.014Z,0.80
2022-10-15T09:58:34.438Z,0.93
2022-10-15T10:01:29.381Z,1.45
2022-10-15T10:04:29.188Z,1.08
2022-10-15T10:07:32.546Z,1.40
2022-10-15T10:10:28.087Z,1.90
2022-10-15T10:13:25.354Z,0.98
2022-10-15T10:16:21.466Z,0.60
2022-10-15T10:19:19.315Z,2.38
2022-10-15T10:22:19.972Z,3.05
2022-10-15T10:25:33.608Z,3.17
2022-10-15T10:28:31.064Z,4.65
2022-10-15T10:31:31.180Z,3.72
2022-10-15T10:34:32.705Z,2.92
2022-10-15T10:37:27.760Z,4.03
2022-10-15T10:40:27.995Z,4.47
2022-10-15T10:43:26.790Z,4.95
2022-10-15T10:46:22.455Z,4.03
2022-10-15T10:49:32.630Z,3.53
2022-10-15T10:52:29.371Z,3.60
2022-10-15T10:55:25.200Z,3.50
2022-10-15T10:58:23.532Z,4.25
2022-10-15T11:01:19.868Z,4.07
2022-10-15T11:04:18.578Z,3.72
2022-10-15T11:07:21.775Z,2.90
2022-10-15T11:10:23.346Z,3.40
2022-10-15T11:13:33.418Z,4.80
2022-10-15T11:16:35.941Z,4.78
2022-10-15T11:20:05.864Z,3.70
2022-10-15T11:23:01.711Z,4.45
2022-10-15T11:26:04.311Z,4.57
2022-10-15T11:29:13.294Z,5.63
2022-10-15T11:32:21.136Z,3.85
2022-10-15T11:35:51.697Z,3.70
2022-10-15T11:38:52.135Z,3.17
2022-10-15T11:41:53.851Z,3.10
2022-10-15T11:45:17.140Z,3.47
2022-10-15T11:48:17.252Z,4.00
2022-10-15T11:51:18.685Z,3.08
2022-10-15T11:54:21.918Z,4.32
2022-10-15T11:57:19.899Z,5.93
2022-10-15T12:00:23.765Z,5.35
2022-10-15T12:03:20.429Z,7.28
2022-10-15T12:06:20.019Z,7.38
2022-10-15T12:09:20.490Z,5.65
2022-10-15T12:12:26.899Z,5.70
2022-10-15T12:15:28.876Z,5.20
2022-10-15T12:18:29.018Z,4.60
2022-10-15T12:21:39.122Z,4.88
2022-10-15T12:24:53.728Z,4.88
2022-10-15T12:28:00.962Z,5.18
2022-10-15T12:30:56.338Z,5.72
2022-10-15T12:33:52.054Z,4.60
2022-10-15T12:36:47.540Z,4.63
2022-10-15T12:39:52.186Z,5.93
2022-10-15T12:42:51.892Z,4.75
2022-10-15T12:45:52.563Z,6.03
2022-10-15T12:48:47.932Z,5.03
2022-10-15T12:51:41.765Z,4.75
2022-10-15T12:54:40.371Z,6.03
2022-10-15T12:57:56.968Z,5.38
2022-10-15T13:00:50.449Z,6.55
2022-10-15T13:03:52.989Z,5.82
2022-10-15T13:06:47.211Z,3.97
2022-10-15T13:09:42.964Z,4.63
2022-10-15T13:12:36.672Z,6.90
2022-10-15T13:15:32.620Z,4.50
2022-10-15T13:18:26.596Z,4.68
2022-10-15T13:21:19.584Z,5.97
2022-10-15T13:24:12.885Z,4.43
2022-10-15T13:27:15.511Z,5.95
2022-10-15T13:30:14.140Z,4.82
2022-10-15T13:33:11.293Z,5.05
2022-10-15T13:36:09.352Z,5.60
2022-10-15T13:39:06.456Z,5.80
2022-10-15T13:42:11.447Z,5.10
2022-10-15T13:45:16.236Z,5.13
2022-10-15T13:48:13.900Z,6.00
2022-10-15T13:51:07.949Z,4.97
2022-10-15T13:54:01.973Z,4.90
2022-10-15T13:56:57.916Z,4.03
2022-10-15T13:59:50.912Z,5.45
2022-10-15T14:02:43.742Z,4.68
2022-10-15T14:05:37.952Z,4.50
2022-10-15T14:08:36.197Z,6.40
2022-10-15T14:11:30.834Z,4.97
2022-10-15T14:14:31.832Z,4.50
2022-10-15T14:17:27.263Z,5.13
2022-10-15T14:20:27.330Z,5.38
2022-10-15T14:23:25.892Z,5.15
2022-10-15T14:26:25.225Z,4.68
2022-10-15T14:29:23.333Z,5.18
2022-10-15T14:32:26.398Z,5.22
2022-10-15T14:35:30.472Z,6.35
2022-10-15T14:38:27.305Z,5.07
2022-10-15T14:41:30.807Z,5.90
2022-10-15T14:44:23.826Z,5.40
2022-10-15T14:47:22.505Z,5.32
2022-10-15T14:50:16.349Z,4.70
2022-10-15T14:53:15.923Z,4.45
2022-10-15T14:56:16.788Z,3.50
2022-10-15T14:59:17.879Z,4.13
2022-10-15T15:02:16.447Z,5.18
2022-10-15T15:05:20.696Z,5.10
2022-10-15T15:08:14.096Z,5.00
2022-10-15T15:11:13.787Z,4.47
2022-10-15T15:14:23.214Z,4.70
2022-10-15T15:17:19.718Z,4.43
2022-10-15T15:20:13.318Z,4.85
2022-10-15T15:23:07.188Z,5.00
2022-10-15T15:26:01.237Z,4.00
2022-10-15T15:28:55.995Z,5.57
2022-10-15T15:31:49.160Z,5.72
2022-10-15T15:34:42.490Z,5.20
2022-10-15T15:37:35.806Z,5.10
2022-10-15T15:40:28.931Z,5.18
2022-10-15T15:43:21.884Z,4.47
2022-10-15T15:46:16.265Z,4.85
2022-10-15T15:49:10.609Z,4.50
2022-10-15T15:52:04.447Z,3.92
2022-10-15T15:54:57.761Z,4.20
2022-10-15T15:57:51.197Z,4.32
2022-10-15T16:00:44.796Z,4.70
2022-10-15T16:03:39.087Z,4.82
2022-10-15T16:06:31.605Z,5.35
2022-10-15T16:09:24.647Z,4.15
2022-10-15T16:12:17.771Z,5.22
2022-10-15T16:15:14.592Z,3.30
2022-10-15T16:18:09.285Z,5.43
2022-10-15T16:21:04.482Z,7.00
2022-10-15T16:23:57.563Z,4.18
2022-10-15T16:26:50.827Z,4.28
2022-10-15T16:29:43.460Z,4.93
2022-10-15T16:32:37.050Z,4.85
2022-10-15T16:35:29.518Z,4.07
2022-10-15T16:38:24.016Z,5.15
2022-10-15T16:41:19.638Z,6.10
2022-10-15T16:44:12.835Z,5.25
2022-10-15T16:47:05.536Z,4.68
2022-10-15T16:49:58.838Z,5.13
2022-10-15T16:52:52.114Z,3.85
2022-10-15T16:55:46.095Z,4.60
2022-10-15T16:58:38.715Z,5.55
2022-10-15T17:01:32.108Z,4.15
2022-10-15T17:04:24.942Z,4.63
2022-10-15T17:07:18.079Z,4.30
2022-10-15T17:10:13.982Z,4.65
2022-10-15T17:13:08.947Z,6.22
2022-10-15T17:16:10.068Z,4.05
2022-10-15T17:19:02.986Z,4.00
2022-10-15T17:21:56.176Z,4.95
2022-10-15T17:24:50.266Z,3.80
2022-10-15T17:27:43.529Z,4.20
2022-10-15T17:30:38.741Z,4.18
2022-10-15T17:33:31.982Z,5.03
2022-10-15T17:36:25.557Z,4.07
2022-10-15T17:39:20.410Z,4.35
2022-10-15T17:42:15.679Z,4.65
2022-10-15T17:45:10.485Z,4.43
2022-10-15T17:48:05.265Z,4.50
2022-10-15T17:51:00.413Z,4.47
2022-10-15T17:53:54.319Z,3.08
2022-10-15T17:56:48.586Z,5.07
2022-10-15T17:59:41.853Z,5.20
2022-10-15T18:02:35.191Z,4.07
2022-10-15T18:05:30.007Z,4.50
2022-10-15T18:08:22.799Z,4.85
2022-10-15T18:11:18.514Z,4.10
2022-10-15T18:14:11.998Z,5.00
2022-10-15T18:17:05.898Z,3.55
2022-10-15T18:19:58.757Z,3.92
2022-10-15T18:22:53.680Z,4.68
2022-10-15T18:25:46.613Z,5.10
2022-10-15T18:28:42.641Z,3.70
2022-10-15T18:31:35.999Z,3.92
2022-10-15T18:34:30.158Z,3.58
2022-10-15T18:37:23.322Z,4.30
2022-10-15T18:40:18.276Z,3.97
2022-10-15T18:43:12.455Z,3.67
2022-10-15T18:46:06.884Z,4.57
2022-10-15T18:49:00.433Z,3.50
2022-10-15T18:51:54.118Z,3.83
2022-10-15T18:54:46.804Z,4.07
2022-10-15T18:57:41.201Z,4.15
2022-10-15T19:00:35.608Z,3.00
2022-10-15T19:03:28.715Z,3.50
2022-10-15T19:06:22.532Z,4.20
2022-10-15T19:09:18.201Z,4.13
2022-10-15T19:12:10.917Z,3.90
2022-10-15T19:15:06.248Z,4.20
2022-10-15T19:17:59.868Z,3.65
2022-10-15T19:20:52.819Z,3.63
2022-10-15T19:23:45.694Z,3.78
2022-10-15T19:26:38.867Z,4.40
2022-10-15T19:29:35.104Z,4.13
2022-10-15T19:32:30.268Z,3.83
2022-10-15T19:35:23.978Z,3.58
2022-10-15T19:38:17.015Z,3.65
2022-10-15T19:41:09.757Z,4.20
2022-10-15T19:44:03.746Z,4.80
2022-10-15T19:46:57.822Z,4.15
2022-10-15T19:49:52.209Z,3.25
2022-10-15T19:52:45.180Z,4.25
2022-10-15T19:55:38.203Z,4.35
2022-10-15T19:58:31.649Z,3.55
2022-10-15T20:01:25.160Z,4.13
2022-10-15T20:04:17.835Z,3.42
2022-10-15T20:07:12.343Z,3.47
2022-10-15T20:10:07.582Z,2.53
2022-10-15T20:13:00.742Z,3.08
2022-10-15T20:15:55.110Z,3.33
2022-10-15T20:18:47.825Z,4.18
2022-10-15T20:21:43.645Z,2.88
2022-10-15T20:24:38.259Z,3.70
2022-10-15T20:27:31.053Z,2.85
2022-10-15T20:30:23.995Z,2.83
2022-10-15T20:33:17.054Z,4.63
2022-10-15T20:36:14.674Z,2.50
2022-10-15T20:39:08.030Z,3.00
2022-10-15T20:42:02.329Z,2.65
2022-10-15T20:44:56.157Z,3.05
2022-10-15T20:47:52.012Z,3.90
2022-10-15T20:50:45.686Z,3.88
2022-10-15T20:53:39.212Z,3.90
2022-10-15T20:56:31.731Z,3.47
2022-10-15T20:59:29.412Z,3.97
2022-10-15T21:02:24.475Z,3.72
2022-10-15T21:05:17.902Z,2.78
2022-10-15T21:08:11.256Z,2.38
2022-10-15T21:11:04.815Z,3.63
2022-10-15T21:13:57.878Z,3.28
2022-10-15T21:16:52.446Z,3.22
2022-10-15T21:19:49.043Z,3.05
2022-10-15T21:22:44.772Z,3.60
2022-10-15T21:28:32.124Z,3.55
2022-10-15T21:31:25.745Z,3.38
2022-10-15T21:34:22.586Z,3.22
2022-10-15T21:37:16.065Z,3.67
2022-10-15T21:40:10.600Z,2.30
2022-10-15T21:43:04.282Z,3.20
2022-10-15T21:45:56.979Z,4.22
2022-10-15T21:48:50.827Z,2.85
2022-10-15T21:51:45.265Z,2.42
2022-10-15T21:54:38.119Z,2.95
2022-10-15T21:57:30.929Z,2.70
2022-10-15T22:00:26.172Z,2.88
2022-10-15T22:03:18.978Z,3.10
2022-10-15T22:06:12.694Z,2.58
2022-10-15T22:09:08.490Z,5.28
2022-10-15T22:12:01.715Z,2.97
2022-10-15T22:14:55.006Z,2.97
2022-10-15T22:17:47.846Z,2.65
2022-10-15T22:23:38.702Z,3.33
2022-10-15T22:26:35.371Z,2.17
2022-10-15T22:29:32.984Z,2.80
2022-10-15T22:32:28.222Z,2.90
2022-10-15T22:35:21.520Z,2.40
2022-10-15T22:38:15.112Z,3.42
2022-10-15T22:41:09.789Z,2.83
2022-10-15T22:44:04.794Z,3.10
2022-10-15T22:46:58.407Z,3.13
2022-10-15T22:49:51.083Z,2.85
2022-10-15T22:52:44.017Z,2.42
2022-10-15T22:55:37.146Z,3.85
2022-10-15T22:58:32.263Z,3.55
2022-10-15T23:01:27.941Z,2.72
2022-10-15T23:04:21.321Z,2.55
2022-10-15T23:07:14.170Z,2.35
2022-10-15T23:10:08.014Z,3.55
2022-10-15T23:13:01.053Z,3.22
2022-10-15T23:15:54.046Z,2.78
2022-10-15T23:18:52.816Z,1.50
2022-10-15T23:21:48.220Z,2.92
2022-10-15T23:24:40.995Z,2.53
2022-10-15T23:27:34.354Z,2.60
2022-10-15T23:30:27.019Z,2.65
2022-10-15T23:33:19.956Z,3.00
2022-10-15T23:36:14.959Z,2.63
2022-10-15T23:39:08.696Z,2.30
2022-10-15T23:42:02.184Z,2.17
2022-10-15T23:44:55.324Z,2.50
2022-10-15T23:47:47.975Z,1.73
2022-10-15T23:50:41.154Z,2.05
2022-10-15T23:53:35.487Z,2.35
2022-10-15T23:56:29.998Z,2.47
2022-10-15T23:59:22.814Z,2.65
